Time;durP1;ratioP1;P1;durP2;ratioP2;P2;SDS_P1;SDS_P2;PMS_P1;PMS_P2;Temp;Humidity;BMP_temperature;BMP_pressure;BME280_temperature;BME280_humidity;BME280_pressure;Samples;Min_cycle;Max_cycle;Signal;HPM_P1;HPM_P2
2023/12/26 00:01:58;;;;;;;0.77;0.77;;;9.60;86.40;;;8.85;85.31;97511.72;5019793;28;20459;-69
2023/12/26 00:04:25;;;;;;;0.93;0.80;;;9.60;86.70;;;8.77;85.04;97505.56;5018996;28;20616;-68
2023/12/26 00:06:53;;;;;;;1.77;1.00;;;9.60;86.50;;;8.78;84.96;97509.91;5019909;28;20460;-68
2023/12/26 00:09:20;;;;;;;0.63;0.63;;;9.60;86.60;;;8.72;85.03;97507.25;5016584;28;20468;-70
2023/12/26 00:11:47;;;;;;;1.40;1.00;;;9.50;86.30;;;8.76;84.43;97501.22;5021168;28;20462;-69
2023/12/26 00:14:16;;;;;;;1.03;0.87;;;9.60;86.40;;;8.76;84.56;97500.38;5022610;28;20456;-68
2023/12/26 00:16:45;;;;;;;0.80;0.80;;;9.60;86.30;;;8.60;85.53;97499.03;4996341;28;20445;-69
2023/12/26 00:19:13;;;;;;;1.33;0.77;;;9.50;86.40;;;8.58;85.12;97495.72;5015628;28;20469;-69
2023/12/26 00:21:40;;;;;;;1.27;0.80;;;9.50;86.40;;;8.68;85.10;97495.25;5005077;28;20458;-69
2023/12/26 00:24:08;;;;;;;0.93;0.83;;;9.50;86.60;;;8.56;85.34;97492.41;5013753;28;20483;-69
2023/12/26 00:26:38;;;;;;;1.87;1.10;;;9.40;86.50;;;8.57;85.72;97489.50;5020531;28;20494;-67
2023/12/26 00:29:06;;;;;;;1.47;1.00;;;9.40;86.50;;;8.49;86.29;97487.88;4998147;28;20557;-68
2023/12/26 00:31:33;;;;;;;0.97;0.87;;;9.40;86.60;;;8.56;86.33;97492.41;5017906;28;20485;-67
2023/12/26 00:34:02;;;;;;;1.23;1.13;;;9.40;86.70;;;8.55;86.72;97485.38;5012676;28;20459;-68
2023/12/26 00:36:29;;;;;;;1.20;1.00;;;9.30;86.80;;;8.51;86.90;97487.69;5020196;28;20460;-69
2023/12/26 00:38:57;;;;;;;0.90;0.90;;;9.40;87.00;;;8.61;86.07;97495.31;5020880;28;20530;-68
2023/12/26 00:41:25;;;;;;;1.10;0.80;;;9.40;86.90;;;8.47;86.98;97489.94;5018364;28;20450;-67
2023/12/26 00:43:52;;;;;;;1.87;1.10;;;9.40;87.00;;;8.58;86.10;97487.66;5018538;28;20490;-68
2023/12/26 00:46:19;;;;;;;2.13;1.10;;;9.40;86.80;;;8.54;86.48;97481.03;5011668;28;20497;-67
2023/12/26 00:48:47;;;;;;;1.80;1.07;;;9.40;86.80;;;8.53;86.87;97482.91;5012113;28;20458;-69
2023/12/26 00:51:16;;;;;;;1.30;1.10;;;9.40;86.70;;;8.65;84.75;97485.75;5021280;28;20682;-68
2023/12/26 00:53:43;;;;;;;0.93;0.90;;;9.50;86.60;;;8.64;84.92;97484.09;5022114;28;20470;-67
2023/12/26 00:56:10;;;;;;;1.00;0.70;;;9.50;86.50;;;8.57;86.21;97488.66;5014715;28;20465;-68
2023/12/26 00:58:38;;;;;;;0.83;0.80;;;9.40;86.70;;;8.58;85.51;97487.66;5008955;28;21277;-68
2023/12/26 01:01:05;;;;;;;1.40;0.83;;;9.40;86.60;;;8.58;85.35;97480.38;5003404;28;20452;-68
2023/12/26 01:03:33;;;;;;;1.13;0.97;;;9.40;86.80;;;8.52;85.85;97469.66;5018597;28;20512;-68
2023/12/26 01:06:00;;;;;;;1.80;1.00;;;9.40;86.50;;;8.66;85.80;97482.00;5018252;28;20484;-68
2023/12/26 01:08:29;;;;;;;1.50;0.93;;;9.40;86.60;;;8.68;84.58;97482.59;5021164;28;20825;-68
2023/12/26 01:10:56;;;;;;;1.10;0.80;;;9.50;86.50;;;8.52;85.50;97483.13;5012612;28;20462;-66
2023/12/26 01:13:25;;;;;;;1.47;0.80;;;9.40;86.40;;;8.46;85.69;97485.59;5021518;28;20557;-68
2023/12/26 01:15:52;;;;;;;0.83;0.83;;;9.30;86.50;;;8.41;86.04;97496.16;5016635;28;20513;-69
2023/12/26 01:18:20;;;;;;;2.00;0.93;;;9.30;86.50;;;8.58;84.98;97496.53;5021244;28;20462;-68
2023/12/26 01:20:50;;;;;;;1.20;1.10;;;9.40;86.50;;;8.62;84.71;97494.25;5014450;28;20523;-68
2023/12/26 01:23:17;;;;;;;1.37;1.10;;;9.40;86.40;;;8.57;84.46;97494.91;5015336;28;20457;-67
2023/12/26 01:25:46;;;;;;;0.73;0.73;;;9.40;86.10;;;8.52;84.65;97507.34;4988777;28;20483;-69
2023/12/26 01:28:13;;;;;;;1.83;1.10;;;9.40;86.20;;;8.51;85.84;97501.16;4980876;28;20461;-67
2023/12/26 01:30:41;;;;;;;2.00;0.90;;;9.40;86.30;;;8.50;85.09;97503.00;5014049;28;20463;-66
2023/12/26 01:33:08;;;;;;;1.70;1.10;;;9.40;86.20;;;8.43;85.26;97486.03;5012879;28;21100;-68
2023/12/26 01:35:36;;;;;;;1.10;1.00;;;9.40;86.40;;;8.19;85.96;97447.22;4977804;28;20487;-67
2023/12/26 01:38:02;;;;;;;1.83;1.17;;;9.40;86.30;;;8.59;84.83;97500.06;4998725;28;21257;-67
2023/12/26 01:40:29;;;;;;;1.50;1.13;;;9.40;86.20;;;8.54;84.77;97510.66;5005309;28;20988;-67
2023/12/26 01:42:58;;;;;;;0.80;0.80;;;9.40;86.10;;;8.36;86.06;97506.75;5013897;28;20463;-67
2023/12/26 01:45:25;;;;;;;1.10;0.90;;;9.30;86.10;;;8.38;85.73;97509.25;5014006;28;20490;-68
2023/12/26 01:47:57;;;;;;;1.30;0.97;;;9.30;86.40;;;8.40;85.88;97515.25;5010848;28;20483;-67
2023/12/26 01:50:25;;;;;;;0.93;0.90;;;9.30;86.30;;;8.46;85.36;97515.22;4992175;28;20458;-68
2023/12/26 01:52:53;;;;;;;1.67;1.57;;;9.30;86.30;;;8.41;85.12;97508.81;5012751;28;20458;-68
2023/12/26 01:55:21;;;;;;;1.23;0.70;;;9.30;86.10;;;8.46;85.57;97515.22;5017622;28;20577;-68
2023/12/26 01:57:50;;;;;;;0.80;0.73;;;9.30;86.20;;;8.49;85.23;97522.03;5010125;28;20462;-69
2023/12/26 02:00:19;;;;;;;2.07;0.70;;;9.40;86.30;;;8.41;85.57;97512.31;5000612;28;20498;-68
2023/12/26 02:02:47;;;;;;;1.33;0.77;;;9.30;86.10;;;8.43;85.37;97509.44;5009625;28;20513;-67
2023/12/26 02:05:15;;;;;;;0.80;0.80;;;9.30;86.20;;;8.43;85.55;97504.03;5018044;28;21134;-67
2023/12/26 02:07:43;;;;;;;1.63;0.67;;;9.30;86.10;;;8.37;85.67;97505.72;4990430;28;20536;-66
2023/12/26 02:10:10;;;;;;;0.73;0.67;;;9.30;86.20;;;8.41;85.36;97511.50;4999890;28;20463;-67
2023/12/26 02:12:37;;;;;;;2.47;1.10;;;9.30;86.00;;;8.39;85.25;97506.34;5017022;28;20450;-67
2023/12/26 02:15:05;;;;;;;1.10;0.87;;;9.30;86.10;;;8.44;86.19;97508.38;4993781;28;20470;-67
2023/12/26 02:17:36;;;;;;;1.27;1.10;;;9.30;86.20;;;8.52;85.46;97496.56;5015113;28;20452;-68
2023/12/26 02:20:04;;;;;;;1.30;0.80;;;9.30;86.20;;;8.37;85.55;97486.88;5013762;28;20510;-68
2023/12/26 02:22:31;;;;;;;0.93;0.63;;;9.30;85.90;;;8.36;85.67;97480.69;5013319;28;20459;-68
2023/12/26 02:25:00;;;;;;;0.70;0.60;;;9.30;86.00;;;8.32;85.07;97492.91;5014077;28;20481;-68
2023/12/26 02:27:30;;;;;;;1.07;0.80;;;9.20;85.80;;;8.32;84.46;97492.09;5011459;28;20820;-68
2023/12/26 02:29:59;;;;;;;1.50;0.73;;;9.30;85.70;;;8.29;85.60;97489.84;5017254;28;20539;-68
2023/12/26 02:32:27;;;;;;;0.60;0.60;;;9.20;85.80;;;8.30;85.05;97491.47;5015039;28;20481;-68
2023/12/26 02:34:55;;;;;;;0.80;0.70;;;9.20;85.60;;;8.26;85.19;97482.16;5013815;28;20525;-68
2023/12/26 02:37:24;;;;;;;0.50;0.40;;;9.20;85.60;;;8.33;84.80;97497.25;5010941;28;20459;-68
2023/12/26 02:39:51;;;;;;;0.80;0.80;;;9.20;85.70;;;8.28;85.33;97496.25;5018571;28;20509;-68
2023/12/26 02:42:24;;;;;;;0.70;0.70;;;9.20;85.70;;;8.34;85.21;97500.78;5017848;28;20454;-68
2023/12/26 02:44:52;;;;;;;1.67;1.00;;;9.20;85.80;;;8.27;85.21;97498.09;5013298;28;20602;-68
2023/12/26 02:47:19;;;;;;;1.13;0.70;;;9.20;85.80;;;8.27;85.11;97502.69;4998582;28;20458;-68
2023/12/26 02:49:47;;;;;;;1.50;0.80;;;9.20;85.70;;;8.28;84.78;97498.94;5015440;28;20552;-66
2023/12/26 02:52:14;;;;;;;1.20;0.80;;;9.20;85.80;;;8.13;85.52;97497.34;4999916;28;20474;-67
2023/12/26 02:54:41;;;;;;;2.83;0.87;;;9.10;85.50;;;8.19;85.09;97499.19;5005679;28;20458;-69
2023/12/26 02:57:08;;;;;;;0.80;0.80;;;9.10;85.60;;;8.11;84.38;97507.47;5016550;28;20465;-67
2023/12/26 02:59:37;;;;;;;1.17;0.70;;;9.10;85.30;;;8.13;83.99;97500.03;5023830;28;20462;-67
2023/12/26 03:02:05;;;;;;;0.80;0.67;;;9.10;85.00;;;8.17;84.09;97503.09;4997072;28;20465;-67
2023/12/26 03:04:32;;;;;;;1.13;0.83;;;9.10;85.20;;;8.20;83.93;97494.63;5021715;28;20465;-67
2023/12/26 03:07:00;;;;;;;1.00;0.87;;;9.10;85.30;;;8.12;84.96;97493.00;5018789;28;21198;-67
2023/12/26 03:09:27;;;;;;;0.90;0.70;;;9.00;85.30;;;8.15;85.17;97497.13;5009605;28;20451;-67
2023/12/26 03:11:54;;;;;;;0.67;0.67;;;9.00;85.40;;;8.14;84.13;97496.31;4998990;28;20487;-68
2023/12/26 03:14:21;;;;;;;1.10;0.57;;;9.00;85.30;;;8.15;84.25;97499.81;4997518;28;20478;-68
2023/12/26 03:16:50;;;;;;;1.50;0.73;;;9.00;85.50;;;7.76;85.35;97445.91;4999155;28;20871;-68
2023/12/26 03:19:17;;;;;;;1.53;0.90;;;9.00;85.60;;;8.05;85.09;97501.09;5020609;28;20452;-67
2023/12/26 03:21:45;;;;;;;2.07;0.97;;;9.00;85.80;;;7.98;85.06;97518.28;5016616;28;20674;-67
2023/12/26 03:24:12;;;;;;;0.77;0.77;;;8.90;85.50;;;7.96;85.32;97514.97;5000750;28;20508;-67
2023/12/26 03:26:40;;;;;;;2.20;0.80;;;8.90;85.40;;;7.90;85.26;97514.78;4998713;28;20481;-67
2023/12/26 03:29:07;;;;;;;0.90;0.90;;;8.80;85.50;;;7.96;85.13;97523.03;5007281;28;21142;-67
2023/12/26 03:31:39;;;;;;;2.13;1.00;;;8.90;85.40;;;7.84;85.29;97523.69;5019879;28;20458;-67
2023/12/26 03:34:08;;;;;;;3.30;1.10;;;8.80;85.30;;;7.96;84.89;97529.25;5001950;28;20466;-68
2023/12/26 03:36:35;;;;;;;0.90;0.63;;;8.90;85.50;;;7.83;83.65;97530.13;4998015;28;20958;-68
2023/12/26 03:39:03;;;;;;;0.70;0.70;;;8.80;84.60;;;7.83;83.54;97538.19;5000830;28;20976;-67
2023/12/26 03:41:30;;;;;;;0.73;0.53;;;8.80;84.50;;;7.83;83.73;97542.72;5000783;28;20460;-69
2023/12/26 03:43:58;;;;;;;0.73;0.63;;;8.80;84.60;;;7.96;83.57;97549.94;5022542;28;20450;-68
2023/12/26 03:46:25;;;;;;;1.30;0.63;;;8.80;84.60;;;7.81;82.29;97561.78;4998073;28;20476;-68
2023/12/26 03:48:52;;;;;;;1.07;0.73;;;8.80;84.00;;;7.84;82.75;97558.66;5020859;28;20531;-67
2023/12/26 03:51:21;;;;;;;0.63;0.60;;;8.80;84.00;;;7.84;82.46;97550.59;5000464;28;20453;-67
2023/12/26 03:53:48;;;;;;;0.80;0.67;;;8.80;84.10;;;7.79;83.07;97579.97;5003424;28;20499;-67
2023/12/26 03:56:15;;;;;;;0.90;0.80;;;8.70;84.40;;;7.78;82.76;97559.47;4998198;28;20454;-67
2023/12/26 03:58:44;;;;;;;1.20;0.90;;;8.70;84.00;;;7.75;82.60;97581.41;5018253;28;20466;-67
2023/12/26 04:01:13;;;;;;;2.67;1.17;;;8.70;84.10;;;7.72;83.05;97568.41;5013662;28;20463;-67
2023/12/26 04:03:40;;;;;;;1.30;0.90;;;8.70;84.20;;;7.65;82.99;97573.78;5013388;28;20467;-67
2023/12/26 04:06:07;;;;;;;2.00;0.93;;;8.60;84.00;;;7.75;82.46;97573.34;5014463;28;20478;-67
2023/12/26 04:08:36;;;;;;;1.70;0.90;;;8.70;84.00;;;7.73;81.44;97578.13;5016300;28;20462;-67
2023/12/26 04:11:04;;;;;;;1.13;1.03;;;8.70;83.30;;;7.75;81.19;97570.66;5015010;28;20459;-67
2023/12/26 04:13:31;;;;;;;2.97;0.90;;;8.70;83.40;;;7.77;80.80;97582.03;5000332;28;20477;-67
2023/12/26 04:15:58;;;;;;;2.60;1.13;;;8.70;83.10;;;7.64;79.59;97578.31;5019840;28;20450;-67
2023/12/26 04:18:25;;;;;;;2.80;1.30;;;8.60;82.40;;;7.73;79.61;97575.44;5017650;28;20467;-68
2023/12/26 04:20:53;;;;;;;2.13;1.03;;;8.70;82.50;;;7.87;78.65;97581.59;4996512;28;20439;-68
2023/12/26 04:23:19;;;;;;;3.50;1.80;;;8.70;82.50;;;7.80;78.02;97581.63;4994534;28;20989;-67
2023/12/26 04:25:48;;;;;;;3.53;1.57;;;8.70;81.70;;;7.74;78.54;97572.53;4994821;28;21022;-66
2023/12/26 04:28:15;;;;;;;2.53;1.17;;;8.70;81.70;;;7.73;77.97;97559.28;5021695;28;20453;-67
2023/12/26 04:30:43;;;;;;;2.37;1.30;;;8.70;81.40;;;7.74;77.48;97567.16;4997979;28;20459;-67
2023/12/26 04:33:12;;;;;;;6.37;1.60;;;8.70;81.30;;;7.73;77.49;97556.59;4999767;28;20848;-67
2023/12/26 04:35:39;;;;;;;4.10;1.50;;;8.70;81.00;;;7.77;76.63;97555.16;5010531;28;20462;-67
2023/12/26 04:38:06;;;;;;;3.43;1.40;;;8.70;80.80;;;7.77;76.48;97544.38;5001010;28;21249;-67
2023/12/26 04:40:34;;;;;;;4.83;1.60;;;8.70;80.50;;;7.77;76.19;97561.38;5005958;28;20447;-68
2023/12/26 04:43:08;;;;;;;4.17;1.90;;;8.70;80.50;;;7.74;76.49;97561.78;5014510;28;20465;-66
2023/12/26 04:45:38;;;;;;;4.80;1.57;;;8.70;80.50;;;7.82;76.46;97568.81;5012576;28;20478;-67
2023/12/26 04:48:07;;;;;;;1.60;1.20;;;8.70;80.50;;;7.86;75.80;97555.75;5011929;28;20971;-67
2023/12/26 04:50:35;;;;;;;3.93;1.60;;;8.80;80.20;;;7.84;75.63;97561.34;4982876;28;20807;-67
2023/12/26 04:53:04;;;;;;;3.63;1.73;;;8.80;80.10;;;7.93;75.53;97564.66;5007752;28;21010;-67
2023/12/26 04:55:31;;;;;;;7.57;1.47;;;8.80;80.10;;;7.88;75.77;97559.91;5015235;28;20553;-67
2023/12/26 04:58:02;;;;;;;8.80;1.90;;;8.80;79.80;;;7.93;75.70;97560.09;5019467;28;20519;-68
2023/12/26 05:00:29;;;;;;;3.10;1.30;;;8.80;80.20;;;7.84;75.79;97555.97;4994799;28;20464;-67
2023/12/26 05:02:56;;;;;;;2.83;1.17;;;8.80;79.80;;;7.89;75.70;97550.78;5016687;28;20462;-67
2023/12/26 05:05:25;;;;;;;5.73;1.70;;;8.80;79.80;;;7.93;75.27;97548.50;5019687;28;20975;-67
2023/12/26 05:07:52;;;;;;;2.13;1.33;;;8.90;79.90;;;7.94;75.46;97545.59;4989757;28;20447;-67
2023/12/26 05:10:19;;;;;;;3.87;1.53;;;8.90;79.80;;;7.97;75.37;97541.66;5014322;28;20482;-67
2023/12/26 05:12:47;;;;;;;2.60;1.40;;;8.90;79.80;;;7.90;75.57;97533.59;5012522;28;20460;-68
2023/12/26 05:15:15;;;;;;;5.90;1.93;;;8.90;79.80;;;7.99;75.16;97534.22;5015700;28;20469;-67
2023/12/26 05:17:43;;;;;;;4.20;1.73;;;8.90;79.90;;;7.85;76.26;97528.03;5017990;28;20468;-66
2023/12/26 05:20:12;;;;;;;4.97;1.73;;;8.80;80.00;;;7.34;76.38;97462.34;5004833;28;20504;-66
2023/12/26 05:22:39;;;;;;;4.20;1.63;;;8.70;80.00;;;7.77;76.44;97530.94;5017790;28;21025;-67
2023/12/26 05:25:10;;;;;;;4.70;1.77;;;8.70;79.90;;;7.74;76.40;97531.38;4999278;28;20466;-66
2023/12/26 05:27:38;;;;;;;6.00;1.93;;;8.70;80.00;;;7.72;76.85;97530.75;5017394;28;20546;-67
2023/12/26 05:30:09;;;;;;;6.07;2.37;;;8.70;80.00;;;7.76;76.42;97556.19;4995407;28;21263;-66
2023/12/26 05:32:38;;;;;;;9.27;2.40;;;8.70;80.20;;;7.65;77.06;97542.31;5015744;28;20459;-67
2023/12/26 05:35:09;;;;;;;4.70;1.60;;;8.60;80.20;;;7.65;77.19;97536.13;5012435;28;20478;-67
2023/12/26 05:37:36;;;;;;;3.30;1.50;;;8.60;79.90;;;7.68;76.37;97546.47;4997304;28;20466;-67
2023/12/26 05:40:05;;;;;;;2.37;1.50;;;8.60;80.10;;;7.72;76.66;97530.75;5018981;28;20534;-67
2023/12/26 05:42:33;;;;;;;3.20;1.43;;;8.60;80.00;;;7.71;76.59;97529.09;5014558;28;20549;-67
2023/12/26 05:45:00;;;;;;;6.50;1.63;;;8.70;80.00;;;7.74;76.22;97536.75;4996675;28;21056;-68
2023/12/26 05:47:27;;;;;;;4.77;1.80;;;8.70;80.00;;;7.73;76.41;97538.59;4999999;28;20486;-67
2023/12/26 05:49:57;;;;;;;3.87;1.37;;;8.70;80.10;;;7.69;76.59;97539.25;5012481;28;20474;-68
2023/12/26 05:52:25;;;;;;;4.00;1.90;;;8.60;80.10;;;7.74;76.90;97555.56;5014626;28;20834;-68
2023/12/26 05:54:53;;;;;;;2.30;1.30;;;8.70;80.10;;;7.76;76.69;97565.09;4995346;28;21152;-68
2023/12/26 05:57:20;;;;;;;1.93;1.23;;;8.70;80.20;;;7.75;76.48;97551.84;5018953;28;20477;-68
2023/12/26 05:59:47;;;;;;;6.23;2.13;;;8.70;80.10;;;7.68;76.82;97553.72;5002173;28;20446;-67
2023/12/26 06:02:15;;;;;;;2.27;1.47;;;8.70;80.30;;;7.76;76.56;97558.88;5018937;28;20512;-68
2023/12/26 06:04:42;;;;;;;5.00;1.80;;;8.70;80.10;;;7.79;76.65;97558.44;4999188;28;20817;-68
2023/12/26 06:07:12;;;;;;;3.33;1.23;;;8.70;80.00;;;7.81;76.31;97572.53;5010356;28;20482;-67
2023/12/26 06:09:40;;;;;;;4.40;1.50;;;8.70;80.00;;;7.74;76.63;97577.09;4994687;28;20544;-68
2023/12/26 06:12:08;;;;;;;1.70;1.40;;;8.70;79.80;;;7.82;75.95;97579.56;5015400;28;20466;-67
2023/12/26 06:14:39;;;;;;;2.60;1.17;;;8.70;79.80;;;7.70;76.33;97575.84;4983226;28;20450;-68
2023/12/26 06:17:07;;;;;;;4.40;2.07;;;8.70;79.80;;;7.66;77.10;97572.75;4994466;28;20715;-67
2023/12/26 06:19:35;;;;;;;5.33;1.70;;;8.60;79.90;;;7.58;76.80;97563.03;5000606;28;20462;-66
2023/12/26 06:22:02;;;;;;;3.63;1.70;;;8.60;79.90;;;7.59;76.54;97570.06;5016195;28;20477;-67
2023/12/26 06:24:32;;;;;;;3.33;1.30;;;8.60;79.90;;;7.30;76.71;97523.72;5013688;28;20502;-67
2023/12/26 06:27:00;;;;;;;4.40;1.60;;;8.60;80.00;;;7.63;77.16;97576.66;5020650;28;20474;-68
2023/12/26 06:29:27;;;;;;;3.80;1.70;;;8.50;80.10;;;7.64;77.13;97590.94;5024525;28;20492;-66
2023/12/26 06:31:55;;;;;;;4.40;1.50;;;8.50;80.10;;;7.74;76.19;97593.22;4998821;28;20452;-68
2023/12/26 06:34:22;;;;;;;3.53;1.60;;;8.60;80.00;;;7.77;76.23;97593.63;5014419;28;20474;-68
2023/12/26 06:36:50;;;;;;;5.23;1.90;;;8.70;79.70;;;7.86;75.99;97590.72;5016366;28;20458;-68
2023/12/26 06:39:18;;;;;;;6.33;1.50;;;8.70;79.60;;;7.75;76.24;97589.50;5021860;28;20471;-68
2023/12/26 06:41:47;;;;;;;4.00;1.50;;;8.70;79.80;;;7.92;75.32;97593.41;5000545;28;20464;-68
2023/12/26 06:44:16;;;;;;;2.70;1.87;;;8.80;79.60;;;7.81;75.99;97580.59;5014579;28;20465;-67
2023/12/26 06:46:43;;;;;;;3.80;1.50;;;8.80;79.70;;;7.89;75.69;97596.50;5015479;28;21032;-68
2023/12/26 06:49:16;;;;;;;4.50;1.93;;;8.80;79.40;;;7.94;75.10;97607.47;5014998;28;20833;-68
2023/12/26 06:51:43;;;;;;;2.47;1.40;;;8.80;79.50;;;7.91;75.53;97593.63;4982014;28;20459;-68
2023/12/26 06:54:11;;;;;;;3.53;1.50;;;8.80;79.50;;;7.92;75.34;97611.41;5001416;28;20987;-68
2023/12/26 06:56:39;;;;;;;5.03;1.50;;;8.80;79.30;;;7.89;74.96;97609.97;4989468;28;20447;-68
2023/12/26 06:59:10;;;;;;;3.17;1.80;;;8.80;79.30;;;7.93;74.67;97603.13;5017363;28;20570;-67
2023/12/26 07:01:38;;;;;;;4.63;1.90;;;8.90;79.20;;;7.87;75.74;97613.88;5011537;28;20477;-68
2023/12/26 07:04:05;;;;;;;2.57;1.60;;;8.80;79.20;;;7.89;75.22;97609.97;5012095;28;20528;-68
2023/12/26 07:06:33;;;;;;;2.63;1.50;;;8.80;79.30;;;7.82;75.60;97611.84;4998555;28;20484;-67
2023/12/26 07:09:00;;;;;;;5.53;1.50;;;8.80;79.20;;;7.94;75.33;97610.16;5017481;28;20533;-67
2023/12/26 07:11:28;;;;;;;6.43;1.93;;;8.90;79.20;;;7.90;75.08;97614.31;5016595;28;20487;-68
2023/12/26 07:13:55;;;;;;;4.80;2.00;;;8.80;79.10;;;8.02;76.85;97621.75;5015568;28;20466;-67
2023/12/26 07:16:24;;;;;;;2.57;1.70;;;8.90;79.90;;;7.99;75.17;97635.63;5017098;28;20477;-68
2023/12/26 07:18:55;;;;;;;3.40;1.63;;;8.90;79.40;;;8.05;74.69;97642.84;5004017;28;20890;-68
2023/12/26 07:21:22;;;;;;;5.07;1.90;;;9.00;79.10;;;8.23;77.02;97640.34;4998681;28;20560;-68
2023/12/26 07:23:49;;;;;;;3.40;1.20;;;9.00;79.80;;;8.16;74.28;97650.31;5005611;28;20454;-67
2023/12/26 07:26:21;;;;;;;5.27;1.50;;;9.10;78.90;;;8.17;73.80;97635.81;5016317;28;20569;-68
2023/12/26 07:28:48;;;;;;;4.00;1.33;;;9.10;79.00;;;8.23;74.01;97664.56;4999516;28;20460;-70
2023/12/26 07:31:20;;;;;;;4.27;1.60;;;9.20;78.80;;;8.28;74.64;97668.50;5004418;28;20465;-70
2023/12/26 07:33:51;;;;;;;5.00;1.73;;;9.20;78.90;;;8.34;74.16;97667.66;5019137;28;20469;-70
2023/12/26 07:36:19;;;;;;;4.90;1.60;;;9.30;78.80;;;8.34;74.54;97679.28;5001943;28;21032;-69
2023/12/26 07:38:46;;;;;;;7.33;1.87;;;9.30;78.80;;;8.44;73.97;97681.53;5016428;28;21146;-70
2023/12/26 07:41:14;;;;;;;4.27;1.30;;;9.30;78.90;;;8.49;74.42;97687.09;5012170;28;20609;-69
2023/12/26 07:43:41;;;;;;;2.20;1.50;;;9.40;79.30;;;8.55;73.96;97692.72;5014711;28;20459;-69
2023/12/26 07:46:09;;;;;;;3.97;1.37;;;9.40;79.30;;;8.42;73.57;97698.91;5002650;28;20502;-69
2023/12/26 07:48:37;;;;;;;4.10;1.67;;;9.40;78.70;;;8.43;73.67;97697.88;4994656;28;20457;-69
2023/12/26 07:51:10;;;;;;;1.93;1.20;;;9.40;78.60;;;8.38;73.36;97701.19;5022551;28;20465;-69
2023/12/26 07:53:38;;;;;;;5.00;1.30;;;9.30;78.40;;;8.37;73.72;97702.22;4988238;28;20549;-70
2023/12/26 07:56:05;;;;;;;4.23;1.50;;;9.30;78.50;;;8.48;74.01;97707.00;5015791;28;20520;-68
2023/12/26 07:58:34;;;;;;;4.90;1.70;;;9.40;78.70;;;8.46;73.23;97716.31;4999746;28;20451;-69
2023/12/26 08:01:02;;;;;;;3.80;1.07;;;9.40;78.60;;;8.45;73.35;97733.50;5001258;28;20452;-67
2023/12/26 08:03:29;;;;;;;5.40;1.30;;;9.40;78.30;;;8.39;73.49;97740.53;5006733;28;20459;-67
2023/12/26 08:05:57;;;;;;;4.70;1.93;;;9.40;78.30;;;8.46;73.86;97727.91;5001285;28;20890;-68
2023/12/26 08:08:26;;;;;;;4.70;1.93;;;9.40;78.40;;;8.57;73.46;97729.16;5019460;28;21274;-81
2023/12/26 08:10:53;;;;;;;6.03;1.53;;;9.40;78.50;;;8.60;73.71;97714.47;5015147;28;20467;-70
2023/12/26 08:13:20;;;;;;;5.57;1.80;;;9.50;78.50;;;8.56;73.61;97718.59;5015124;28;20466;-70
2023/12/26 08:15:48;;;;;;;7.23;1.80;;;9.50;78.50;;;8.47;74.14;97732.25;4997618;28;20518;-70
2023/12/26 08:18:15;;;;;;;5.13;1.73;;;9.40;78.50;;;8.54;73.60;97747.59;5013125;28;20461;-70
2023/12/26 08:20:42;;;;;;;4.03;1.53;;;9.50;78.70;;;8.47;74.03;97745.72;5011848;28;20470;-70
2023/12/26 08:23:10;;;;;;;4.37;1.50;;;9.50;78.70;;;8.42;74.50;97753.59;5017479;28;20466;-69
2023/12/26 08:25:38;;;;;;;5.77;1.43;;;9.40;78.70;;;8.43;74.20;97749.03;4997606;28;20462;-72
2023/12/26 08:28:07;;;;;;;2.20;1.37;;;9.40;78.80;;;8.44;75.02;97759.59;5016668;28;20517;-70
2023/12/26 08:30:34;;;;;;;3.50;1.30;;;9.40;78.80;;;8.54;74.82;97767.28;5021194;28;20454;-72
2023/12/26 08:33:01;;;;;;;3.83;1.47;;;9.40;78.90;;;8.48;75.01;97758.16;5013691;28;20468;-70
2023/12/26 08:35:31;;;;;;;2.43;1.50;;;9.40;78.80;;;8.49;74.64;97761.66;5017451;28;20458;-72
2023/12/26 08:37:58;;;;;;;5.80;1.57;;;9.50;79.00;;;8.06;75.25;97698.31;5018238;28;20816;-71
2023/12/26 08:40:25;;;;;;;1.90;1.10;;;9.40;79.20;;;8.37;75.98;97766.84;5015758;28;20459;-71
2023/12/26 08:42:54;;;;;;;2.10;1.20;;;9.40;79.40;;;8.33;76.94;97771.00;5017764;28;20513;-71
2023/12/26 08:45:22;;;;;;;2.27;1.33;;;9.30;79.60;;;8.33;77.22;97762.91;5017661;28;20458;-70
2023/12/26 08:47:52;;;;;;;4.97;1.10;;;9.30;79.90;;;8.41;76.74;97776.16;5016702;28;20474;-70
2023/12/26 08:50:20;;;;;;;3.77;1.80;;;9.40;80.00;;;8.41;77.12;97786.91;5018904;28;20565;-70
2023/12/26 08:52:47;;;;;;;3.57;1.63;;;9.40;80.40;;;8.39;77.20;97769.34;5014177;28;20727;-71
2023/12/26 08:55:16;;;;;;;4.93;1.37;;;9.40;80.20;;;8.35;78.22;97787.75;5018375;28;20523;-71
2023/12/26 08:57:43;;;;;;;3.17;1.37;;;9.30;80.30;;;8.20;77.67;97775.34;5015687;28;20449;-71
2023/12/26 09:00:15;;;;;;;5.20;1.97;;;9.30;80.20;;;8.35;78.45;97785.06;5007034;28;20504;-69
2023/12/26 09:02:43;;;;;;;1.90;1.60;;;9.30;80.50;;;8.38;77.92;97791.91;5018220;28;20517;-69
2023/12/26 09:05:12;;;;;;;6.00;2.00;;;9.30;80.50;;;8.33;77.51;97795.22;5001270;28;22295;-69
2023/12/26 09:07:40;;;;;;;7.60;1.60;;;9.30;80.40;;;8.44;77.76;97797.31;5011798;28;20952;-70
2023/12/26 09:10:09;;;;;;;5.50;2.40;;;9.40;80.40;;;8.43;77.96;97811.81;5014962;28;20478;-71
2023/12/26 09:12:36;;;;;;;3.60;1.93;;;9.30;80.30;;;8.34;77.52;97819.25;5002747;28;20582;-71
2023/12/26 09:15:04;;;;;;;3.43;1.90;;;9.30;80.30;;;8.47;77.11;97823.81;5021643;28;20459;-70
2023/12/26 09:17:32;;;;;;;2.67;1.50;;;9.40;80.30;;;8.61;76.33;97819.28;5013381;28;20836;-71
2023/12/26 09:19:59;;;;;;;5.23;1.80;;;9.50;80.20;;;8.67;75.78;97825.69;5010692;28;20450;-71
2023/12/26 09:22:27;;;;;;;5.10;1.90;;;9.60;79.90;;;8.74;75.69;97823.84;5017265;28;20470;-70
2023/12/26 09:24:54;;;;;;;6.33;1.70;;;9.60;79.80;;;8.81;75.33;97847.25;5016857;28;20455;-70
2023/12/26 09:27:21;;;;;;;8.23;2.23;;;9.70;79.80;;;8.41;75.40;97792.31;5018128;28;20482;-88
2023/12/26 09:29:49;;;;;;;5.47;1.57;;;9.70;79.70;;;8.73;74.80;97854.50;5019900;28;20459;-71
2023/12/26 09:32:16;;;;;;;4.37;1.80;;;9.70;79.50;;;8.61;74.98;97862.34;4994779;28;20451;-75
2023/12/26 09:34:45;;;;;;;3.60;1.90;;;9.60;79.30;;;8.72;75.95;97849.31;5015435;28;20454;-70
2023/12/26 09:37:13;;;;;;;9.20;2.20;;;9.60;79.60;;;8.59;74.75;97844.78;5013712;28;20455;-69
2023/12/26 09:39:40;;;;;;;3.30;1.53;;;9.60;79.30;;;8.71;75.14;97850.34;4999169;28;20455;-76
2023/12/26 09:42:11;;;;;;;3.70;1.40;;;9.60;79.30;;;8.72;74.54;97850.16;5017118;28;20953;-84
2023/12/26 09:44:39;;;;;;;3.80;1.70;;;9.60;79.20;;;8.72;74.14;97866.31;5020062;28;20473;-69
2023/12/26 09:47:09;;;;;;;7.43;2.83;;;9.70;79.10;;;8.60;75.34;97854.50;5020572;28;20478;-68
2023/12/26 09:49:36;;;;;;;6.27;2.67;;;9.60;79.10;;;8.71;74.48;97878.09;4989350;28;20467;-69
2023/12/26 09:52:09;;;;;;;5.80;1.70;;;9.60;79.10;;;8.77;74.45;97882.69;5019320;28;20447;-68
2023/12/26 09:54:39;;;;;;;8.93;2.57;;;9.60;79.00;;;8.88;74.12;97877.72;5008294;28;20459;-70
2023/12/26 09:57:11;;;;;;;6.23;2.10;;;9.70;79.10;;;8.84;73.40;97885.38;5020971;28;20536;-90
2023/12/26 09:59:40;;;;;;;3.67;1.37;;;9.70;78.90;;;8.74;73.93;97885.78;5014076;28;20454;-68
2023/12/26 10:02:12;;;;;;;3.87;1.67;;;9.70;78.90;;;8.76;74.47;97883.72;5020954;28;20879;-69
2023/12/26 10:04:40;;;;;;;5.57;1.70;;;9.70;78.90;;;8.80;74.34;97892.22;5020268;28;20495;-74
2023/12/26 10:07:10;;;;;;;5.90;1.60;;;9.70;78.90;;;8.86;74.63;97898.63;5022849;28;20479;-69
2023/12/26 10:09:37;;;;;;;2.70;1.97;;;9.80;79.00;;;8.84;73.62;97890.75;5019909;28;20492;-69
2023/12/26 10:12:06;;;;;;;7.37;2.00;;;9.80;78.90;;;8.90;73.73;97886.41;5023075;28;20450;-69
2023/12/26 10:14:33;;;;;;;3.30;1.83;;;9.90;78.80;;;8.92;74.06;97887.03;5022162;28;20562;-69
2023/12/26 10:17:01;;;;;;;5.40;1.87;;;9.90;78.70;;;8.67;73.96;97844.53;5023287;28;20470;-69
2023/12/26 10:19:28;;;;;;;3.57;1.70;;;10.00;77.70;;;8.96;74.21;97893.66;5027131;28;20454;-69
2023/12/26 10:21:55;;;;;;;7.87;2.20;;;9.90;78.70;;;8.98;73.73;97894.28;5018592;28;20940;-70
2023/12/26 10:24:26;;;;;;;5.83;1.37;;;9.90;78.80;;;8.93;73.22;97886.00;5023718;28;20465;-69
2023/12/26 10:26:54;;;;;;;5.10;1.60;;;9.90;78.60;;;8.92;74.61;97908.59;5003847;28;20892;-70
2023/12/26 10:29:25;;;;;;;4.80;1.50;;;9.90;78.90;;;8.88;73.61;97899.28;5023698;28;20972;-69
2023/12/26 10:31:52;;;;;;;4.10;1.77;;;9.90;78.70;;;8.85;74.08;97905.03;5025855;28;20550;-69
2023/12/26 10:34:21;;;;;;;2.30;1.30;;;9.80;78.80;;;8.86;74.00;97904.00;5026760;28;20447;-71
2023/12/26 10:36:50;;;;;;;5.50;1.57;;;9.80;78.60;;;8.90;73.87;97907.97;5008165;28;20449;-69